createdAt,value
2019-03-25T00:00:45.507Z,1.20
2019-03-25T00:03:13.956Z,1.10
2019-03-25T00:05:42.535Z,1.10
2019-03-25T00:08:10.966Z,1.10
2019-03-25T00:10:39.493Z,1.00
2019-03-25T00:13:07.920Z,1.00
2019-03-25T00:15:38.380Z,1.00
2019-03-25T00:18:07.570Z,1.00
2019-03-25T00:20:36.027Z,1.00
2019-03-25T00:23:04.682Z,1.00
2019-03-25T00:25:33.127Z,1.00
2019-03-25T00:28:01.559Z,1.00
2019-03-25T00:30:30.090Z,1.10
2019-03-25T00:32:58.572Z,1.00
2019-03-25T00:35:27.151Z,1.00
2019-03-25T00:37:55.662Z,1.00
2019-03-25T00:40:24.238Z,1.00
2019-03-25T00:42:52.720Z,1.00
2019-03-25T00:45:21.131Z,0.90
2019-03-25T00:47:49.643Z,0.90
2019-03-25T00:50:18.160Z,0.90
2019-03-25T00:52:46.620Z,0.90
2019-03-25T00:55:15.113Z,0.90
2019-03-25T00:57:43.543Z,0.90
2019-03-25T01:00:11.971Z,0.90
2019-03-25T01:02:42.356Z,0.90
2019-03-25T01:05:10.771Z,0.90
2019-03-25T01:07:39.425Z,0.90
2019-03-25T01:10:10.052Z,1.00
2019-03-25T01:12:38.483Z,0.90
2019-03-25T01:15:07.450Z,0.90
2019-03-25T01:17:36.032Z,0.90
2019-03-25T01:20:11.469Z,0.90
2019-03-25T01:22:40.055Z,0.90
2019-03-25T01:25:10.190Z,0.90
2019-03-25T01:27:38.642Z,0.90
2019-03-25T01:30:08.602Z,0.80
2019-03-25T01:32:37.031Z,0.80
2019-03-25T01:35:06.436Z,0.80
2019-03-25T01:37:35.025Z,0.80
2019-03-25T01:40:05.553Z,0.80
2019-03-25T01:42:34.103Z,0.80
2019-03-25T01:45:03.739Z,0.80
2019-03-25T01:47:32.187Z,0.80
2019-03-25T01:50:00.696Z,0.80
2019-03-25T01:52:29.244Z,0.80
2019-03-25T01:54:57.671Z,0.80
2019-03-25T01:57:26.111Z,0.90
2019-03-25T01:59:54.718Z,0.90
2019-03-25T02:02:25.550Z,0.90
2019-03-25T02:04:54.130Z,0.90
2019-03-25T02:07:22.590Z,1.00
2019-03-25T02:09:52.750Z,1.00
2019-03-25T02:12:21.206Z,1.00
2019-03-25T02:14:49.655Z,1.00
2019-03-25T02:17:18.142Z,1.10
2019-03-25T02:19:46.611Z,1.10
2019-03-25T02:22:15.093Z,1.10
2019-03-25T02:24:43.672Z,1.10
2019-03-25T02:27:12.151Z,1.20
2019-03-25T02:29:53.272Z,1.20
2019-03-25T02:32:21.811Z,1.20
2019-03-25T02:34:50.309Z,1.20
2019-03-25T02:37:18.899Z,1.20
2019-03-25T02:39:47.295Z,1.20
2019-03-25T02:42:15.856Z,1.20
2019-03-25T02:44:44.437Z,1.20
2019-03-25T02:47:13.017Z,1.20
2019-03-25T02:49:41.496Z,1.20
2019-03-25T02:52:09.987Z,1.20
2019-03-25T02:54:38.422Z,1.20
2019-03-25T02:57:07.112Z,1.20
2019-03-25T02:59:35.588Z,1.20
2019-03-25T03:02:04.101Z,1.20
2019-03-25T03:04:32.542Z,1.20
2019-03-25T03:07:00.971Z,1.20
2019-03-25T03:09:29.533Z,1.30
2019-03-25T03:11:58.003Z,1.20
2019-03-25T03:14:28.309Z,1.30
2019-03-25T03:16:56.812Z,1.30
2019-03-25T03:19:25.222Z,1.30
2019-03-25T03:21:53.740Z,1.30
2019-03-25T03:24:22.224Z,1.40
2019-03-25T03:26:50.721Z,1.40
2019-03-25T03:29:19.313Z,1.40
2019-03-25T03:31:47.720Z,1.40
2019-03-25T03:34:16.271Z,1.40
2019-03-25T03:36:44.675Z,1.40
2019-03-25T03:39:14.166Z,1.40
2019-03-25T03:41:42.639Z,1.40
2019-03-25T03:44:12.916Z,1.40
2019-03-25T03:46:41.326Z,1.40
2019-03-25T03:49:09.808Z,1.40
2019-03-25T03:51:38.282Z,1.40
2019-03-25T03:54:06.708Z,1.50
2019-03-25T03:56:35.240Z,1.50
2019-03-25T03:59:05.658Z,1.50
2019-03-25T04:01:34.037Z,1.50
2019-03-25T04:04:02.481Z,1.50
2019-03-25T04:06:31.905Z,1.50
2019-03-25T04:09:00.425Z,1.50
2019-03-25T04:11:28.852Z,1.40
2019-03-25T04:13:58.450Z,1.40
2019-03-25T04:16:26.880Z,1.40
2019-03-25T04:18:55.375Z,1.30
2019-03-25T04:21:23.903Z,1.30
2019-03-25T04:23:54.139Z,1.20
2019-03-25T04:26:29.190Z,1.20
2019-03-25T04:28:52.707Z,1.20
2019-03-25T04:31:21.215Z,1.20
2019-03-25T04:33:49.670Z,1.20
2019-03-25T04:36:18.148Z,1.20
2019-03-25T04:38:46.656Z,1.20
2019-03-25T04:41:15.110Z,1.30
2019-03-25T04:43:43.530Z,1.30
2019-03-25T04:46:14.342Z,1.30
2019-03-25T04:48:42.791Z,1.40
2019-03-25T04:51:11.402Z,1.40
2019-03-25T04:53:39.881Z,1.40
2019-03-25T04:56:08.431Z,1.50
2019-03-25T04:58:36.941Z,1.50
2019-03-25T05:01:05.392Z,1.50
2019-03-25T05:03:33.869Z,1.60
2019-03-25T05:06:02.383Z,1.60
2019-03-25T05:08:30.933Z,1.60
2019-03-25T05:10:59.513Z,1.70
2019-03-25T05:13:28.024Z,1.70
2019-03-25T05:15:56.473Z,1.80
2019-03-25T05:18:24.961Z,1.70
2019-03-25T05:20:53.458Z,1.80
2019-03-25T05:23:24.189Z,1.80
2019-03-25T05:25:52.738Z,1.80
2019-03-25T05:28:21.163Z,1.90
2019-03-25T05:30:49.700Z,1.90
2019-03-25T05:33:18.127Z,1.90
2019-03-25T05:35:48.342Z,2.00
2019-03-25T05:38:16.879Z,2.00
2019-03-25T05:40:45.384Z,2.00
2019-03-25T05:43:24.147Z,2.00
2019-03-25T05:45:52.655Z,2.10
2019-03-25T05:48:21.252Z,2.10
2019-03-25T05:50:49.758Z,2.20
2019-03-25T05:53:18.326Z,2.30
2019-03-25T05:55:46.759Z,2.30
2019-03-25T05:58:15.366Z,2.30
2019-03-25T06:00:44.070Z,2.40
2019-03-25T06:03:12.533Z,2.40
2019-03-25T06:05:41.027Z,2.50
2019-03-25T06:08:09.396Z,2.50
2019-03-25T06:10:37.822Z,2.60
2019-03-25T06:13:06.259Z,2.70
2019-03-25T06:15:34.737Z,2.80
2019-03-25T06:18:03.096Z,2.80
2019-03-25T06:20:31.599Z,2.90
2019-03-25T06:23:00.174Z,3.00
2019-03-25T06:25:28.661Z,3.10
2019-03-25T06:27:59.048Z,3.20
2019-03-25T06:30:27.531Z,3.30
2019-03-25T06:32:55.969Z,3.40
2019-03-25T06:35:24.501Z,3.30
2019-03-25T06:37:52.976Z,3.40
2019-03-25T06:40:22.398Z,3.50
2019-03-25T06:42:50.835Z,3.70
2019-03-25T06:45:19.455Z,3.70
2019-03-25T06:47:47.936Z,3.70
2019-03-25T06:50:16.411Z,3.80
2019-03-25T06:52:46.600Z,4.00
2019-03-25T06:55:15.035Z,4.10
2019-03-25T06:57:43.531Z,4.30
2019-03-25T07:00:12.175Z,4.40
2019-03-25T07:02:40.623Z,4.40
2019-03-25T07:05:09.099Z,4.50
2019-03-25T07:07:38.511Z,4.70
2019-03-25T07:10:08.143Z,4.80
2019-03-25T07:12:37.412Z,4.70
2019-03-25T07:15:08.652Z,4.80
2019-03-25T07:17:37.156Z,4.80
2019-03-25T07:20:09.725Z,4.90
2019-03-25T07:22:38.180Z,4.90
2019-03-25T07:25:06.791Z,5.10
2019-03-25T07:27:37.016Z,5.20
2019-03-25T07:30:07.569Z,5.30
2019-03-25T07:32:37.847Z,5.40
2019-03-25T07:35:07.876Z,5.40
2019-03-25T07:37:36.323Z,5.40
2019-03-25T07:40:07.056Z,5.40
2019-03-25T07:42:35.566Z,5.50
2019-03-25T07:45:08.006Z,5.50
2019-03-25T07:47:37.394Z,5.60
2019-03-25T07:50:07.526Z,5.60
2019-03-25T07:52:35.996Z,5.60
2019-03-25T07:55:05.731Z,5.70
2019-03-25T07:57:34.531Z,5.90
2019-03-25T08:00:13.241Z,6.00
2019-03-25T08:02:34.532Z,6.00
2019-03-25T08:05:03.134Z,6.10
2019-03-25T08:07:31.617Z,6.40
2019-03-25T08:10:00.388Z,6.40
2019-03-25T08:12:29.017Z,6.70
2019-03-25T08:14:57.450Z,6.60
2019-03-25T08:17:26.046Z,6.80
2019-03-25T08:19:54.495Z,6.80
2019-03-25T08:22:22.930Z,6.90
2019-03-25T08:24:51.483Z,6.60
2019-03-25T08:27:20.034Z,6.70
2019-03-25T08:29:48.543Z,6.90
2019-03-25T08:32:16.939Z,6.90
2019-03-25T08:34:45.367Z,6.90
2019-03-25T08:37:33.303Z,7.10
2019-03-25T08:40:03.536Z,7.00
2019-03-25T08:42:31.955Z,7.00
2019-03-25T08:45:00.483Z,7.20
2019-03-25T08:47:28.958Z,7.10
2019-03-25T08:49:59.196Z,7.00
2019-03-25T08:52:27.759Z,6.90
2019-03-25T08:54:56.269Z,6.60
2019-03-25T08:57:24.850Z,6.50
2019-03-25T08:59:53.330Z,6.40
2019-03-25T09:02:21.911Z,6.20
2019-03-25T09:04:50.360Z,6.40
2019-03-25T09:07:18.774Z,6.50
2019-03-25T09:09:47.347Z,6.50
2019-03-25T09:12:15.931Z,6.40
2019-03-25T09:14:44.327Z,6.40
2019-03-25T09:17:12.863Z,6.60
2019-03-25T09:19:41.355Z,6.70
2019-03-25T09:22:10.331Z,6.60
2019-03-25T09:24:38.811Z,6.60
2019-03-25T09:27:07.387Z,6.70
2019-03-25T09:29:35.868Z,6.80
2019-03-25T09:32:04.303Z,6.80
2019-03-25T09:34:32.730Z,6.90
2019-03-25T09:37:01.333Z,7.20
2019-03-25T09:39:29.751Z,6.80
2019-03-25T09:41:58.258Z,6.50
2019-03-25T09:44:26.872Z,6.40
2019-03-25T09:46:55.295Z,6.30
2019-03-25T09:49:23.904Z,6.70
2019-03-25T09:51:52.964Z,6.60
2019-03-25T09:54:21.811Z,6.40
2019-03-25T09:56:50.362Z,6.40
2019-03-25T09:59:18.870Z,6.50
2019-03-25T10:01:47.453Z,6.50
2019-03-25T10:04:15.932Z,6.60
2019-03-25T10:06:44.483Z,6.50
2019-03-25T10:09:14.717Z,6.40
2019-03-25T10:11:43.225Z,6.30
2019-03-25T10:14:11.763Z,6.20
2019-03-25T10:16:41.359Z,6.20
2019-03-25T10:19:10.331Z,6.10
2019-03-25T10:21:38.975Z,6.20
2019-03-25T10:24:07.588Z,6.30
2019-03-25T10:26:36.133Z,6.60
2019-03-25T10:29:04.643Z,6.60
2019-03-25T10:31:33.168Z,6.80
2019-03-25T10:34:01.818Z,6.90
2019-03-25T10:36:31.724Z,7.00
2019-03-25T10:39:00.444Z,7.00
2019-03-25T10:41:28.934Z,7.10
2019-03-25T10:43:57.431Z,7.10
2019-03-25T10:46:26.015Z,7.20
2019-03-25T10:48:54.527Z,7.00
2019-03-25T10:51:22.947Z,7.20
2019-03-25T10:53:51.444Z,7.20
2019-03-25T10:56:19.934Z,7.20
2019-03-25T10:58:50.700Z,7.10
2019-03-25T11:01:18.432Z,7.10
2019-03-25T11:03:47.109Z,7.10
2019-03-25T11:06:15.688Z,7.10
2019-03-25T11:08:44.248Z,7.10
2019-03-25T11:11:12.714Z,7.20
2019-03-25T11:13:41.207Z,7.20
2019-03-25T11:16:10.437Z,7.40
2019-03-25T11:18:41.153Z,7.50
2019-03-25T11:21:09.606Z,7.50
2019-03-25T11:23:38.104Z,7.40
2019-03-25T11:26:06.541Z,7.30
2019-03-25T11:28:35.069Z,7.10
2019-03-25T11:31:03.651Z,7.20
2019-03-25T11:33:33.910Z,7.10
2019-03-25T11:36:02.916Z,7.30
2019-03-25T11:38:33.798Z,7.40
2019-03-25T11:41:03.534Z,7.40
2019-03-25T11:43:32.087Z,7.30
2019-03-25T11:46:01.440Z,7.00
2019-03-25T11:48:29.803Z,7.00
2019-03-25T11:50:58.315Z,6.90
2019-03-25T11:53:26.750Z,6.80
2019-03-25T11:55:55.403Z,6.80
2019-03-25T11:58:23.794Z,6.70
2019-03-25T12:00:52.290Z,6.70
2019-03-25T12:03:20.810Z,6.80
2019-03-25T12:05:49.322Z,7.10
2019-03-25T12:08:17.767Z,7.10
2019-03-25T12:10:46.278Z,6.90
2019-03-25T12:13:14.755Z,6.70
2019-03-25T12:15:43.119Z,6.20
2019-03-25T12:18:11.549Z,5.90
2019-03-25T12:20:40.091Z,5.50
2019-03-25T12:23:08.537Z,5.30
2019-03-25T12:25:37.168Z,5.30
2019-03-25T12:28:07.246Z,5.30
2019-03-25T12:30:35.823Z,5.10
2019-03-25T12:33:04.557Z,4.80
2019-03-25T12:35:33.207Z,4.40
2019-03-25T12:38:01.629Z,4.20
2019-03-25T12:40:30.121Z,4.20
2019-03-25T12:42:58.623Z,4.30
2019-03-25T12:45:28.421Z,4.40
2019-03-25T12:47:57.218Z,4.60
2019-03-25T12:50:25.728Z,4.60
2019-03-25T12:52:55.752Z,4.60
2019-03-25T12:55:29.843Z,4.40
2019-03-25T12:57:58.407Z,4.40
2019-03-25T13:00:38.364Z,4.40
2019-03-25T13:03:06.863Z,4.80
2019-03-25T13:05:35.444Z,5.00
2019-03-25T13:08:04.023Z,5.10
2019-03-25T13:10:32.494Z,5.00
2019-03-25T13:13:01.396Z,5.10
2019-03-25T13:15:29.974Z,5.40
2019-03-25T13:17:58.452Z,5.40
2019-03-25T13:20:26.899Z,5.40
2019-03-25T13:22:55.440Z,5.30
2019-03-25T13:25:23.846Z,5.00
2019-03-25T13:27:52.256Z,5.00
2019-03-25T13:30:20.808Z,5.10
2019-03-25T13:32:49.224Z,5.30
2019-03-25T13:35:17.632Z,5.00
2019-03-25T13:37:46.048Z,5.30
2019-03-25T13:40:14.450Z,5.50
2019-03-25T13:42:42.868Z,5.50
2019-03-25T13:45:11.383Z,5.70
2019-03-25T13:47:39.760Z,5.80
2019-03-25T13:50:09.801Z,5.80
2019-03-25T13:52:40.345Z,6.00
2019-03-25T13:55:09.734Z,6.30
2019-03-25T13:57:38.149Z,6.40
2019-03-25T14:00:07.000Z,6.40
2019-03-25T14:02:35.476Z,6.20
2019-03-25T14:05:04.435Z,6.20
2019-03-25T14:07:32.844Z,6.40
2019-03-25T14:10:01.324Z,6.50
2019-03-25T14:12:30.768Z,6.70
2019-03-25T14:14:59.222Z,7.00
2019-03-25T14:17:27.612Z,6.90
2019-03-25T14:19:56.019Z,6.90
2019-03-25T14:22:24.505Z,6.90
2019-03-25T14:24:52.914Z,6.60
2019-03-25T14:27:23.284Z,6.50
2019-03-25T14:29:51.520Z,6.60
2019-03-25T14:32:19.944Z,6.50
2019-03-25T14:34:48.360Z,6.20
2019-03-25T14:37:16.855Z,6.30
2019-03-25T14:39:45.338Z,6.20
2019-03-25T14:42:13.817Z,6.00
2019-03-25T14:44:42.220Z,5.90
2019-03-25T14:47:10.644Z,6.00
2019-03-25T14:49:39.045Z,5.70
2019-03-25T14:52:09.537Z,5.50
2019-03-25T14:54:39.957Z,5.50
2019-03-25T14:57:07.980Z,5.60
2019-03-25T14:59:36.412Z,5.60
2019-03-25T15:02:04.826Z,5.40
2019-03-25T15:04:33.307Z,5.50
2019-03-25T15:07:01.723Z,5.40
2019-03-25T15:09:30.200Z,5.30
2019-03-25T15:11:58.611Z,5.20
2019-03-25T15:14:27.021Z,5.20
2019-03-25T15:16:55.435Z,5.30
2019-03-25T15:19:23.915Z,5.20
2019-03-25T15:21:52.438Z,5.20
2019-03-25T15:24:20.893Z,5.20
2019-03-25T15:26:49.293Z,5.00
2019-03-25T15:29:17.723Z,5.00
2019-03-25T15:31:46.116Z,4.80
2019-03-25T15:34:14.528Z,4.80
2019-03-25T15:36:42.940Z,4.70
2019-03-25T15:39:11.429Z,4.60
2019-03-25T15:41:39.912Z,4.50
2019-03-25T15:44:08.440Z,4.50
2019-03-25T15:46:36.880Z,4.30
2019-03-25T15:49:05.391Z,4.20
2019-03-25T15:51:33.878Z,4.00
2019-03-25T15:54:02.322Z,3.80
2019-03-25T15:56:30.803Z,3.80
2019-03-25T15:58:59.216Z,3.50
2019-03-25T16:01:27.696Z,3.60
2019-03-25T16:03:56.116Z,3.50
2019-03-25T16:06:24.525Z,3.50
2019-03-25T16:08:52.999Z,3.40
2019-03-25T16:11:21.416Z,3.30
2019-03-25T16:13:49.912Z,3.30
2019-03-25T16:16:18.464Z,3.10
2019-03-25T16:18:46.953Z,3.20
2019-03-25T16:21:15.523Z,3.20
2019-03-25T16:23:43.969Z,3.20
2019-03-25T16:26:12.451Z,3.10
2019-03-25T16:28:40.869Z,3.10
2019-03-25T16:31:09.286Z,3.10
2019-03-25T16:33:38.060Z,3.00
2019-03-25T16:36:06.472Z,3.00
2019-03-25T16:38:34.952Z,2.90
2019-03-25T16:41:03.364Z,2.90
2019-03-25T16:43:31.771Z,2.80
2019-03-25T16:46:00.278Z,2.80
2019-03-25T16:48:28.687Z,2.80
2019-03-25T16:50:57.172Z,2.80
2019-03-25T16:53:25.653Z,2.80
2019-03-25T16:55:54.166Z,2.80
2019-03-25T16:58:22.689Z,2.80
2019-03-25T17:00:51.119Z,2.80
2019-03-25T17:03:19.533Z,2.80
2019-03-25T17:05:48.004Z,2.80
2019-03-25T17:08:16.440Z,2.80
2019-03-25T17:10:44.998Z,2.80
2019-03-25T17:13:13.328Z,2.80
2019-03-25T17:15:41.820Z,2.90
2019-03-25T17:18:10.231Z,2.80
2019-03-25T17:20:38.639Z,2.80
2019-03-25T17:23:07.048Z,2.80
2019-03-25T17:25:35.466Z,2.80
2019-03-25T17:28:03.887Z,2.80
2019-03-25T17:30:32.439Z,2.80
2019-03-25T17:33:00.860Z,2.70
2019-03-25T17:35:29.268Z,2.70
2019-03-25T17:37:57.673Z,2.80
2019-03-25T17:40:26.215Z,2.70
2019-03-25T17:42:54.885Z,2.70
2019-03-25T17:45:23.371Z,2.70
2019-03-25T17:47:51.775Z,2.70
2019-03-25T17:50:20.256Z,2.70
2019-03-25T17:52:48.684Z,2.70
2019-03-25T17:55:17.089Z,2.70
2019-03-25T17:57:45.502Z,2.70
2019-03-25T18:00:14.261Z,2.70
2019-03-25T18:02:42.750Z,2.70
2019-03-25T18:05:11.174Z,2.70
2019-03-25T18:07:39.583Z,2.60
2019-03-25T18:10:09.432Z,2.60
2019-03-25T18:12:38.978Z,2.60
2019-03-25T18:15:10.241Z,2.60
2019-03-25T18:17:38.657Z,2.60
2019-03-25T18:20:17.713Z,2.60
2019-03-25T18:22:39.815Z,2.50
2019-03-25T18:25:07.732Z,2.40
2019-03-25T18:27:36.159Z,2.40
2019-03-25T18:30:06.631Z,2.40
2019-03-25T18:32:35.046Z,2.30
2019-03-25T18:35:04.493Z,2.30
2019-03-25T18:37:32.902Z,2.20
2019-03-25T18:40:01.327Z,2.20
2019-03-25T18:42:29.792Z,2.10
2019-03-25T18:44:58.217Z,2.10
2019-03-25T18:47:26.762Z,2.00
2019-03-25T18:49:55.267Z,2.00
2019-03-25T18:52:23.895Z,1.90
2019-03-25T18:54:52.310Z,1.90
2019-03-25T18:57:20.718Z,1.90
2019-03-25T18:59:49.350Z,1.80
2019-03-25T19:02:17.754Z,1.80
2019-03-25T19:04:46.170Z,1.80
2019-03-25T19:07:14.738Z,1.80
2019-03-25T19:09:43.125Z,1.70
2019-03-25T19:12:11.592Z,1.70
2019-03-25T19:14:40.080Z,1.70
2019-03-25T19:17:08.560Z,1.60
2019-03-25T19:19:36.997Z,1.60
2019-03-25T19:22:06.239Z,1.60
2019-03-25T19:24:34.683Z,1.60
2019-03-25T19:27:03.147Z,1.60
2019-03-25T19:29:31.803Z,1.60
2019-03-25T19:32:06.478Z,1.60
2019-03-25T19:34:30.347Z,1.60
2019-03-25T19:36:58.812Z,1.50
2019-03-25T19:39:27.413Z,1.50
2019-03-25T19:41:55.840Z,1.50
2019-03-25T19:44:24.334Z,1.50
2019-03-25T19:46:52.766Z,1.50
2019-03-25T19:49:21.167Z,1.50
2019-03-25T19:51:49.639Z,1.40
2019-03-25T19:54:18.123Z,1.40
2019-03-25T19:56:46.538Z,1.40
2019-03-25T19:59:15.270Z,1.40
2019-03-25T20:01:43.730Z,1.30
2019-03-25T20:04:12.121Z,1.30
2019-03-25T20:06:40.540Z,1.30
2019-03-25T20:09:08.962Z,1.30
2019-03-25T20:11:37.463Z,1.30
2019-03-25T20:14:05.835Z,1.30
2019-03-25T20:16:34.254Z,1.40
2019-03-25T20:19:02.767Z,1.40
2019-03-25T20:21:31.190Z,1.50
2019-03-25T20:23:59.753Z,1.50
2019-03-25T20:26:28.212Z,1.50
2019-03-25T20:28:56.552Z,1.50
2019-03-25T20:31:24.972Z,1.60
2019-03-25T20:33:53.425Z,1.60
2019-03-25T20:36:21.788Z,1.50
2019-03-25T20:38:50.300Z,1.50
2019-03-25T20:41:18.744Z,1.50
2019-03-25T20:43:47.154Z,1.50
2019-03-25T20:46:17.572Z,1.60
2019-03-25T20:48:45.759Z,1.50
2019-03-25T20:51:14.189Z,1.50
2019-03-25T20:53:42.669Z,1.50
2019-03-25T20:56:11.268Z,1.50
2019-03-25T20:58:39.667Z,1.50
2019-03-25T21:01:08.147Z,1.60
2019-03-25T21:03:36.564Z,1.60
2019-03-25T21:06:05.052Z,1.50
2019-03-25T21:08:33.530Z,1.50
2019-03-25T21:11:01.946Z,1.50
2019-03-25T21:13:30.348Z,1.40
2019-03-25T21:15:58.755Z,1.40
2019-03-25T21:18:27.261Z,1.40
2019-03-25T21:20:55.696Z,1.30
2019-03-25T21:23:24.899Z,1.30
2019-03-25T21:25:53.299Z,1.30
2019-03-25T21:28:21.778Z,1.20
2019-03-25T21:30:50.369Z,1.20
2019-03-25T21:33:20.362Z,1.20
2019-03-25T21:35:48.720Z,1.10
2019-03-25T21:38:17.268Z,1.20
2019-03-25T21:40:46.653Z,1.20
2019-03-25T21:43:15.038Z,1.20
2019-03-25T21:45:43.559Z,1.20
2019-03-25T21:48:12.090Z,1.20
2019-03-25T21:50:40.632Z,1.20
2019-03-25T21:53:09.297Z,1.20
2019-03-25T21:55:38.597Z,1.10
2019-03-25T21:58:07.003Z,1.20
2019-03-25T22:00:35.526Z,1.20
2019-03-25T22:03:11.534Z,1.30
2019-03-25T22:05:33.981Z,1.30
2019-03-25T22:08:02.383Z,1.40
2019-03-25T22:10:30.804Z,1.40
2019-03-25T22:12:59.208Z,1.40
2019-03-25T22:15:27.688Z,1.40
2019-03-25T22:17:56.104Z,1.40
2019-03-25T22:20:24.584Z,1.40
2019-03-25T22:22:53.071Z,1.40
2019-03-25T22:25:21.490Z,1.40
2019-03-25T22:27:49.917Z,1.40
2019-03-25T22:30:18.392Z,1.30
2019-03-25T22:32:46.803Z,1.30
2019-03-25T22:35:15.288Z,1.20
2019-03-25T22:37:43.847Z,1.20
2019-03-25T22:40:12.258Z,1.20
2019-03-25T22:42:40.664Z,1.10
2019-03-25T22:45:09.067Z,1.00
2019-03-25T22:47:37.547Z,1.00
2019-03-25T22:50:07.194Z,1.00
2019-03-25T22:52:35.679Z,0.90
2019-03-25T22:55:06.535Z,0.90
2019-03-25T22:57:34.947Z,0.80
2019-03-25T23:00:03.436Z,0.80
2019-03-25T23:02:31.845Z,0.80
2019-03-25T23:05:00.380Z,0.80
2019-03-25T23:07:30.522Z,0.80
2019-03-25T23:09:58.864Z,0.70
2019-03-25T23:12:27.416Z,0.80
2019-03-25T23:14:55.820Z,0.80
2019-03-25T23:17:24.245Z,0.90
2019-03-25T23:19:52.712Z,0.90
2019-03-25T23:22:21.118Z,0.90
2019-03-25T23:24:49.531Z,1.00
2019-03-25T23:27:17.932Z,1.00
2019-03-25T23:29:46.421Z,1.10
2019-03-25T23:32:14.823Z,1.10
2019-03-25T23:34:43.293Z,1.10
2019-03-25T23:37:11.751Z,1.10
2019-03-25T23:39:40.152Z,1.20
2019-03-25T23:42:08.636Z,1.20
2019-03-25T23:44:37.141Z,1.20
2019-03-25T23:47:05.551Z,1.20
2019-03-25T23:49:33.951Z,1.20
2019-03-25T23:52:02.443Z,1.30
2019-03-25T23:54:30.928Z,1.20
2019-03-25T23:56:59.338Z,1.30
2019-03-25T23:59:27.827Z,1.30
